sensor_id;sensor_type;location;lat;lon;timestamp;P1;durP1;ratioP1;P2;durP2;ratioP2
13406;SDS011;6774;48.208;10.766;2024-01-15T00:02:19;6.37;;;5.13;;
13406;SDS011;6774;48.208;10.766;2024-01-15T00:04:46;5.03;;;4.37;;
13406;SDS011;6774;48.208;10.766;2024-01-15T00:07:14;6.70;;;5.73;;
13406;SDS011;6774;48.208;10.766;2024-01-15T00:09:42;8.23;;;6.10;;
13406;SDS011;6774;48.208;10.766;2024-01-15T00:12:10;9.53;;;5.33;;
13406;SDS011;6774;48.208;10.766;2024-01-15T00:14:37;8.57;;;7.43;;
13406;SDS011;6774;48.208;10.766;2024-01-15T00:17:05;8.20;;;7.37;;
13406;SDS011;6774;48.208;10.766;2024-01-15T00:19:34;6.93;;;6.13;;
13406;SDS011;6774;48.208;10.766;2024-01-15T00:22:02;14.90;;;7.27;;
13406;SDS011;6774;48.208;10.766;2024-01-15T00:24:30;6.60;;;6.00;;
13406;SDS011;6774;48.208;10.766;2024-01-15T00:26:58;9.17;;;6.13;;
13406;SDS011;6774;48.208;10.766;2024-01-15T00:29:26;11.03;;;8.53;;
13406;SDS011;6774;48.208;10.766;2024-01-15T00:31:54;10.30;;;8.20;;
13406;SDS011;6774;48.208;10.766;2024-01-15T00:34:22;9.40;;;7.30;;
13406;SDS011;6774;48.208;10.766;2024-01-15T00:36:51;11.37;;;8.77;;
13406;SDS011;6774;48.208;10.766;2024-01-15T00:39:19;9.13;;;6.87;;
13406;SDS011;6774;48.208;10.766;2024-01-15T00:41:47;8.27;;;7.20;;
13406;SDS011;6774;48.208;10.766;2024-01-15T00:44:15;11.30;;;7.90;;
13406;SDS011;6774;48.208;10.766;2024-01-15T00:46:43;8.23;;;7.40;;
13406;SDS011;6774;48.208;10.766;2024-01-15T00:49:12;8.47;;;7.37;;
13406;SDS011;6774;48.208;10.766;2024-01-15T00:51:40;12.63;;;7.77;;
13406;SDS011;6774;48.208;10.766;2024-01-15T00:54:09;7.77;;;6.77;;
13406;SDS011;6774;48.208;10.766;2024-01-15T00:56:37;9.47;;;7.73;;
13406;SDS011;6774;48.208;10.766;2024-01-15T00:59:05;9.73;;;7.50;;
13406;SDS011;6774;48.208;10.766;2024-01-15T01:01:34;7.57;;;6.77;;
13406;SDS011;6774;48.208;10.766;2024-01-15T01:04:02;7.63;;;5.80;;
13406;SDS011;6774;48.208;10.766;2024-01-15T01:06:30;8.77;;;6.50;;
13406;SDS011;6774;48.208;10.766;2024-01-15T01:08:59;8.30;;;6.97;;
13406;SDS011;6774;48.208;10.766;2024-01-15T01:11:29;8.70;;;6.70;;
13406;SDS011;6774;48.208;10.766;2024-01-15T01:13:56;12.03;;;8.57;;
13406;SDS011;6774;48.208;10.766;2024-01-15T01:16:24;10.13;;;7.30;;
13406;SDS011;6774;48.208;10.766;2024-01-15T01:18:52;11.87;;;8.53;;
13406;SDS011;6774;48.208;10.766;2024-01-15T01:21:20;10.70;;;7.50;;
13406;SDS011;6774;48.208;10.766;2024-01-15T01:23:48;9.97;;;8.83;;
13406;SDS011;6774;48.208;10.766;2024-01-15T01:26:16;16.30;;;8.90;;
13406;SDS011;6774;48.208;10.766;2024-01-15T01:28:46;9.60;;;8.70;;
13406;SDS011;6774;48.208;10.766;2024-01-15T01:31:13;10.47;;;9.27;;
13406;SDS011;6774;48.208;10.766;2024-01-15T01:33:43;12.10;;;6.60;;
13406;SDS011;6774;48.208;10.766;2024-01-15T01:36:11;10.07;;;7.70;;
13406;SDS011;6774;48.208;10.766;2024-01-15T01:38:39;10.67;;;7.53;;
13406;SDS011;6774;48.208;10.766;2024-01-15T01:41:07;8.50;;;7.13;;
13406;SDS011;6774;48.208;10.766;2024-01-15T01:43:35;8.40;;;6.70;;
13406;SDS011;6774;48.208;10.766;2024-01-15T01:46:05;11.73;;;8.37;;
13406;SDS011;6774;48.208;10.766;2024-01-15T01:48:34;11.97;;;8.27;;
13406;SDS011;6774;48.208;10.766;2024-01-15T01:51:03;8.67;;;6.93;;
13406;SDS011;6774;48.208;10.766;2024-01-15T01:53:32;7.50;;;5.90;;
13406;SDS011;6774;48.208;10.766;2024-01-15T01:56:02;10.43;;;7.20;;
13406;SDS011;6774;48.208;10.766;2024-01-15T01:58:31;10.97;;;7.17;;
13406;SDS011;6774;48.208;10.766;2024-01-15T02:01:00;8.93;;;7.93;;
13406;SDS011;6774;48.208;10.766;2024-01-15T02:03:30;9.60;;;7.37;;
13406;SDS011;6774;48.208;10.766;2024-01-15T02:05:58;9.70;;;5.90;;
13406;SDS011;6774;48.208;10.766;2024-01-15T02:08:27;9.57;;;6.13;;
13406;SDS011;6774;48.208;10.766;2024-01-15T02:10:55;8.83;;;7.17;;
13406;SDS011;6774;48.208;10.766;2024-01-15T02:13:22;6.80;;;5.10;;
13406;SDS011;6774;48.208;10.766;2024-01-15T02:15:50;7.53;;;5.23;;
13406;SDS011;6774;48.208;10.766;2024-01-15T02:18:18;9.50;;;6.07;;
13406;SDS011;6774;48.208;10.766;2024-01-15T02:20:48;10.30;;;7.03;;
13406;SDS011;6774;48.208;10.766;2024-01-15T02:23:17;7.03;;;6.20;;
13406;SDS011;6774;48.208;10.766;2024-01-15T02:25:45;8.93;;;8.13;;
13406;SDS011;6774;48.208;10.766;2024-01-15T02:28:15;9.83;;;6.13;;
13406;SDS011;6774;48.208;10.766;2024-01-15T02:30:44;7.97;;;7.27;;
13406;SDS011;6774;48.208;10.766;2024-01-15T02:33:12;6.43;;;5.07;;
13406;SDS011;6774;48.208;10.766;2024-01-15T02:35:41;10.07;;;6.20;;
13406;SDS011;6774;48.208;10.766;2024-01-15T02:38:08;7.13;;;6.33;;
13406;SDS011;6774;48.208;10.766;2024-01-15T02:40:38;12.53;;;7.73;;
13406;SDS011;6774;48.208;10.766;2024-01-15T02:43:06;10.07;;;6.70;;
13406;SDS011;6774;48.208;10.766;2024-01-15T02:45:34;5.97;;;5.17;;
13406;SDS011;6774;48.208;10.766;2024-01-15T02:48:02;13.07;;;7.27;;
13406;SDS011;6774;48.208;10.766;2024-01-15T02:50:30;10.53;;;5.27;;
13406;SDS011;6774;48.208;10.766;2024-01-15T02:52:58;10.33;;;6.43;;
13406;SDS011;6774;48.208;10.766;2024-01-15T02:55:26;9.17;;;7.60;;
13406;SDS011;6774;48.208;10.766;2024-01-15T02:57:57;5.03;;;4.30;;
13406;SDS011;6774;48.208;10.766;2024-01-15T03:00:24;7.97;;;5.70;;
13406;SDS011;6774;48.208;10.766;2024-01-15T03:02:52;8.97;;;7.70;;
13406;SDS011;6774;48.208;10.766;2024-01-15T03:05:20;7.90;;;5.87;;
13406;SDS011;6774;48.208;10.766;2024-01-15T03:07:48;6.57;;;5.97;;
13406;SDS011;6774;48.208;10.766;2024-01-15T03:10:16;10.67;;;5.50;;
13406;SDS011;6774;48.208;10.766;2024-01-15T03:12:44;5.73;;;4.63;;
13406;SDS011;6774;48.208;10.766;2024-01-15T03:15:13;9.60;;;7.33;;
13406;SDS011;6774;48.208;10.766;2024-01-15T03:17:41;10.00;;;6.00;;
13406;SDS011;6774;48.208;10.766;2024-01-15T03:20:10;10.37;;;7.90;;
13406;SDS011;6774;48.208;10.766;2024-01-15T03:22:38;9.03;;;5.63;;
13406;SDS011;6774;48.208;10.766;2024-01-15T03:25:06;7.60;;;5.23;;
13406;SDS011;6774;48.208;10.766;2024-01-15T03:27:35;6.60;;;5.23;;
13406;SDS011;6774;48.208;10.766;2024-01-15T03:30:02;6.10;;;5.00;;
13406;SDS011;6774;48.208;10.766;2024-01-15T03:32:32;7.97;;;5.37;;
13406;SDS011;6774;48.208;10.766;2024-01-15T03:35:00;6.30;;;4.83;;
13406;SDS011;6774;48.208;10.766;2024-01-15T03:37:28;5.87;;;5.20;;
13406;SDS011;6774;48.208;10.766;2024-01-15T03:39:56;7.27;;;5.60;;
13406;SDS011;6774;48.208;10.766;2024-01-15T03:42:24;5.67;;;4.23;;
13406;SDS011;6774;48.208;10.766;2024-01-15T03:44:51;5.60;;;5.10;;
13406;SDS011;6774;48.208;10.766;2024-01-15T03:47:19;5.33;;;4.83;;
13406;SDS011;6774;48.208;10.766;2024-01-15T03:49:48;7.17;;;5.07;;
13406;SDS011;6774;48.208;10.766;2024-01-15T03:52:16;6.03;;;5.40;;
13406;SDS011;6774;48.208;10.766;2024-01-15T03:54:44;4.80;;;4.30;;
13406;SDS011;6774;48.208;10.766;2024-01-15T03:57:12;7.17;;;5.80;;
13406;SDS011;6774;48.208;10.766;2024-01-15T03:59:40;5.70;;;4.47;;
13406;SDS011;6774;48.208;10.766;2024-01-15T04:02:07;7.50;;;5.97;;
13406;SDS011;6774;48.208;10.766;2024-01-15T04:04:35;5.80;;;4.30;;
13406;SDS011;6774;48.208;10.766;2024-01-15T04:07:04;7.40;;;4.83;;
13406;SDS011;6774;48.208;10.766;2024-01-15T04:09:32;4.87;;;4.37;;
13406;SDS011;6774;48.208;10.766;2024-01-15T04:12:02;9.43;;;4.87;;
13406;SDS011;6774;48.208;10.766;2024-01-15T04:14:30;9.30;;;6.17;;
13406;SDS011;6774;48.208;10.766;2024-01-15T04:16:57;5.67;;;5.17;;
13406;SDS011;6774;48.208;10.766;2024-01-15T04:19:25;7.77;;;5.83;;
13406;SDS011;6774;48.208;10.766;2024-01-15T04:21:53;5.77;;;5.07;;
13406;SDS011;6774;48.208;10.766;2024-01-15T04:24:22;4.60;;;4.17;;
13406;SDS011;6774;48.208;10.766;2024-01-15T04:26:50;5.67;;;4.77;;
13406;SDS011;6774;48.208;10.766;2024-01-15T04:29:18;6.23;;;4.63;;
13406;SDS011;6774;48.208;10.766;2024-01-15T04:31:46;5.23;;;4.53;;
13406;SDS011;6774;48.208;10.766;2024-01-15T04:34:14;5.67;;;3.90;;
13406;SDS011;6774;48.208;10.766;2024-01-15T04:36:42;4.70;;;3.13;;
13406;SDS011;6774;48.208;10.766;2024-01-15T04:39:10;7.13;;;4.97;;
13406;SDS011;6774;48.208;10.766;2024-01-15T04:41:40;4.67;;;4.23;;
13406;SDS011;6774;48.208;10.766;2024-01-15T04:44:08;4.30;;;3.90;;
13406;SDS011;6774;48.208;10.766;2024-01-15T04:46:35;4.53;;;4.13;;
13406;SDS011;6774;48.208;10.766;2024-01-15T04:49:03;8.50;;;5.77;;
13406;SDS011;6774;48.208;10.766;2024-01-15T04:51:31;7.80;;;6.80;;
13406;SDS011;6774;48.208;10.766;2024-01-15T04:53:59;4.23;;;3.87;;
13406;SDS011;6774;48.208;10.766;2024-01-15T04:56:27;5.00;;;4.50;;
13406;SDS011;6774;48.208;10.766;2024-01-15T04:58:56;7.77;;;4.50;;
13406;SDS011;6774;48.208;10.766;2024-01-15T05:01:23;6.20;;;4.13;;
13406;SDS011;6774;48.208;10.766;2024-01-15T05:03:51;8.30;;;4.23;;
13406;SDS011;6774;48.208;10.766;2024-01-15T05:06:22;6.17;;;5.37;;
13406;SDS011;6774;48.208;10.766;2024-01-15T05:08:50;6.53;;;4.20;;
13406;SDS011;6774;48.208;10.766;2024-01-15T05:11:18;6.70;;;4.10;;
13406;SDS011;6774;48.208;10.766;2024-01-15T05:13:45;4.63;;;4.17;;
13406;SDS011;6774;48.208;10.766;2024-01-15T05:16:14;7.77;;;4.07;;
13406;SDS011;6774;48.208;10.766;2024-01-15T05:18:42;6.13;;;3.53;;
13406;SDS011;6774;48.208;10.766;2024-01-15T05:21:10;3.83;;;2.80;;
13406;SDS011;6774;48.208;10.766;2024-01-15T05:23:38;4.00;;;3.17;;
13406;SDS011;6774;48.208;10.766;2024-01-15T05:26:06;6.27;;;3.37;;
13406;SDS011;6774;48.208;10.766;2024-01-15T05:28:35;3.90;;;3.33;;
13406;SDS011;6774;48.208;10.766;2024-01-15T05:31:03;4.43;;;4.03;;
13406;SDS011;6774;48.208;10.766;2024-01-15T05:33:32;2.63;;;2.43;;
13406;SDS011;6774;48.208;10.766;2024-01-15T05:36:00;2.90;;;2.70;;
13406;SDS011;6774;48.208;10.766;2024-01-15T05:38:28;3.67;;;3.30;;
13406;SDS011;6774;48.208;10.766;2024-01-15T05:40:56;4.00;;;2.40;;
13406;SDS011;6774;48.208;10.766;2024-01-15T05:43:24;3.23;;;3.00;;
13406;SDS011;6774;48.208;10.766;2024-01-15T05:45:52;5.20;;;4.70;;
13406;SDS011;6774;48.208;10.766;2024-01-15T05:48:19;3.50;;;3.13;;
13406;SDS011;6774;48.208;10.766;2024-01-15T05:50:49;3.53;;;3.07;;
13406;SDS011;6774;48.208;10.766;2024-01-15T05:53:17;4.67;;;3.63;;
13406;SDS011;6774;48.208;10.766;2024-01-15T05:55:45;5.57;;;4.50;;
13406;SDS011;6774;48.208;10.766;2024-01-15T05:58:12;7.03;;;4.83;;
13406;SDS011;6774;48.208;10.766;2024-01-15T06:00:40;4.10;;;3.57;;
13406;SDS011;6774;48.208;10.766;2024-01-15T06:03:08;6.40;;;5.77;;
13406;SDS011;6774;48.208;10.766;2024-01-15T06:05:36;4.20;;;3.57;;
13406;SDS011;6774;48.208;10.766;2024-01-15T06:08:05;3.90;;;3.23;;
13406;SDS011;6774;48.208;10.766;2024-01-15T06:10:33;3.80;;;3.47;;
13406;SDS011;6774;48.208;10.766;2024-01-15T06:13:01;3.93;;;3.53;;
13406;SDS011;6774;48.208;10.766;2024-01-15T06:15:29;5.50;;;4.70;;
13406;SDS011;6774;48.208;10.766;2024-01-15T06:17:57;5.63;;;5.03;;
13406;SDS011;6774;48.208;10.766;2024-01-15T06:20:24;7.97;;;5.07;;
13406;SDS011;6774;48.208;10.766;2024-01-15T06:22:52;6.07;;;5.40;;
13406;SDS011;6774;48.208;10.766;2024-01-15T06:25:21;4.53;;;4.13;;
13406;SDS011;6774;48.208;10.766;2024-01-15T06:27:49;6.77;;;4.10;;
13406;SDS011;6774;48.208;10.766;2024-01-15T06:30:17;5.03;;;4.63;;
13406;SDS011;6774;48.208;10.766;2024-01-15T06:32:45;8.30;;;6.37;;
13406;SDS011;6774;48.208;10.766;2024-01-15T06:35:13;6.33;;;5.57;;
13406;SDS011;6774;48.208;10.766;2024-01-15T06:37:41;7.53;;;5.30;;
13406;SDS011;6774;48.208;10.766;2024-01-15T06:40:09;7.93;;;7.27;;
13406;SDS011;6774;48.208;10.766;2024-01-15T06:42:38;7.73;;;4.87;;
13406;SDS011;6774;48.208;10.766;2024-01-15T06:45:06;7.50;;;5.57;;
13406;SDS011;6774;48.208;10.766;2024-01-15T06:47:35;6.67;;;4.57;;
13406;SDS011;6774;48.208;10.766;2024-01-15T06:50:03;8.57;;;5.50;;
13406;SDS011;6774;48.208;10.766;2024-01-15T06:52:33;6.87;;;5.33;;
13406;SDS011;6774;48.208;10.766;2024-01-15T06:55:01;8.30;;;5.23;;
13406;SDS011;6774;48.208;10.766;2024-01-15T06:57:29;5.97;;;5.37;;
13406;SDS011;6774;48.208;10.766;2024-01-15T06:59:58;5.93;;;5.33;;
13406;SDS011;6774;48.208;10.766;2024-01-15T07:02:26;7.47;;;5.43;;
13406;SDS011;6774;48.208;10.766;2024-01-15T07:04:53;4.73;;;4.20;;
13406;SDS011;6774;48.208;10.766;2024-01-15T07:07:21;6.70;;;6.10;;
13406;SDS011;6774;48.208;10.766;2024-01-15T07:09:49;6.20;;;5.70;;
13406;SDS011;6774;48.208;10.766;2024-01-15T07:12:18;5.37;;;4.43;;
13406;SDS011;6774;48.208;10.766;2024-01-15T07:14:46;5.13;;;4.57;;
13406;SDS011;6774;48.208;10.766;2024-01-15T07:17:15;4.50;;;4.10;;
13406;SDS011;6774;48.208;10.766;2024-01-15T07:19:43;6.43;;;4.20;;
13406;SDS011;6774;48.208;10.766;2024-01-15T07:22:11;5.13;;;4.27;;
13406;SDS011;6774;48.208;10.766;2024-01-15T07:24:38;3.60;;;3.40;;
13406;SDS011;6774;48.208;10.766;2024-01-15T07:27:06;4.77;;;2.20;;
13406;SDS011;6774;48.208;10.766;2024-01-15T07:29:35;3.37;;;3.00;;
13406;SDS011;6774;48.208;10.766;2024-01-15T07:32:04;4.23;;;2.77;;
13406;SDS011;6774;48.208;10.766;2024-01-15T07:34:35;3.00;;;2.50;;
13406;SDS011;6774;48.208;10.766;2024-01-15T07:37:03;2.70;;;2.50;;
13406;SDS011;6774;48.208;10.766;2024-01-15T07:39:31;3.47;;;2.53;;
13406;SDS011;6774;48.208;10.766;2024-01-15T07:41:59;1.90;;;1.80;;
13406;SDS011;6774;48.208;10.766;2024-01-15T07:44:26;2.50;;;2.20;;
13406;SDS011;6774;48.208;10.766;2024-01-15T07:46:54;3.50;;;2.73;;
13406;SDS011;6774;48.208;10.766;2024-01-15T07:49:22;5.13;;;3.70;;
13406;SDS011;6774;48.208;10.766;2024-01-15T07:51:52;4.20;;;3.83;;
13406;SDS011;6774;48.208;10.766;2024-01-15T07:54:20;3.40;;;2.93;;
13406;SDS011;6774;48.208;10.766;2024-01-15T07:56:54;7.67;;;3.90;;
13406;SDS011;6774;48.208;10.766;2024-01-15T07:59:23;4.63;;;2.70;;
13406;SDS011;6774;48.208;10.766;2024-01-15T08:01:51;5.53;;;4.63;;
13406;SDS011;6774;48.208;10.766;2024-01-15T08:04:20;7.77;;;3.47;;
13406;SDS011;6774;48.208;10.766;2024-01-15T08:06:48;7.00;;;5.17;;
13406;SDS011;6774;48.208;10.766;2024-01-15T08:09:17;9.37;;;4.57;;
13406;SDS011;6774;48.208;10.766;2024-01-15T08:11:45;5.93;;;3.70;;
13406;SDS011;6774;48.208;10.766;2024-01-15T08:14:13;5.27;;;4.77;;
13406;SDS011;6774;48.208;10.766;2024-01-15T08:16:41;6.40;;;5.70;;
13406;SDS011;6774;48.208;10.766;2024-01-15T08:19:10;6.43;;;3.97;;
13406;SDS011;6774;48.208;10.766;2024-01-15T08:21:38;5.83;;;3.80;;
13406;SDS011;6774;48.208;10.766;2024-01-15T08:24:06;4.10;;;3.60;;
13406;SDS011;6774;48.208;10.766;2024-01-15T08:26:35;7.17;;;5.90;;
13406;SDS011;6774;48.208;10.766;2024-01-15T08:29:03;6.33;;;4.63;;
13406;SDS011;6774;48.208;10.766;2024-01-15T08:31:31;7.43;;;5.87;;
13406;SDS011;6774;48.208;10.766;2024-01-15T08:33:59;5.70;;;4.03;;
13406;SDS011;6774;48.208;10.766;2024-01-15T08:36:28;7.33;;;5.10;;
13406;SDS011;6774;48.208;10.766;2024-01-15T08:38:57;5.60;;;5.10;;
13406;SDS011;6774;48.208;10.766;2024-01-15T08:41:24;4.03;;;3.67;;
13406;SDS011;6774;48.208;10.766;2024-01-15T08:43:53;5.80;;;5.27;;
13406;SDS011;6774;48.208;10.766;2024-01-15T08:46:21;7.70;;;4.67;;
13406;SDS011;6774;48.208;10.766;2024-01-15T08:48:50;4.20;;;3.77;;
13406;SDS011;6774;48.208;10.766;2024-01-15T08:51:18;4.70;;;3.87;;
13406;SDS011;6774;48.208;10.766;2024-01-15T08:53:46;6.23;;;4.97;;
13406;SDS011;6774;48.208;10.766;2024-01-15T08:56:14;9.67;;;3.90;;
13406;SDS011;6774;48.208;10.766;2024-01-15T08:58:42;4.63;;;4.13;;
13406;SDS011;6774;48.208;10.766;2024-01-15T09:01:11;5.70;;;5.23;;
13406;SDS011;6774;48.208;10.766;2024-01-15T09:03:39;4.30;;;3.33;;
13406;SDS011;6774;48.208;10.766;2024-01-15T09:06:08;6.43;;;5.23;;
13406;SDS011;6774;48.208;10.766;2024-01-15T09:08:37;4.83;;;3.83;;
13406;SDS011;6774;48.208;10.766;2024-01-15T09:11:04;5.63;;;4.43;;
13406;SDS011;6774;48.208;10.766;2024-01-15T09:13:32;5.23;;;4.27;;
13406;SDS011;6774;48.208;10.766;2024-01-15T09:16:00;6.07;;;4.47;;
13406;SDS011;6774;48.208;10.766;2024-01-15T09:18:36;4.23;;;3.50;;
13406;SDS011;6774;48.208;10.766;2024-01-15T09:21:04;5.00;;;4.60;;
13406;SDS011;6774;48.208;10.766;2024-01-15T09:23:32;5.13;;;4.27;;
13406;SDS011;6774;48.208;10.766;2024-01-15T09:26:00;4.67;;;4.27;;
13406;SDS011;6774;48.208;10.766;2024-01-15T09:28:28;2.90;;;2.60;;
13406;SDS011;6774;48.208;10.766;2024-01-15T09:30:55;8.30;;;5.23;;
13406;SDS011;6774;48.208;10.766;2024-01-15T09:33:23;5.17;;;4.57;;
13406;SDS011;6774;48.208;10.766;2024-01-15T09:35:53;4.20;;;2.73;;
13406;SDS011;6774;48.208;10.766;2024-01-15T09:38:20;3.77;;;3.37;;
13406;SDS011;6774;48.208;10.766;2024-01-15T09:40:50;4.73;;;2.83;;
13406;SDS011;6774;48.208;10.766;2024-01-15T09:43:19;2.47;;;2.17;;
13406;SDS011;6774;48.208;10.766;2024-01-15T09:45:47;4.30;;;3.33;;
13406;SDS011;6774;48.208;10.766;2024-01-15T09:48:18;3.77;;;3.47;;
13406;SDS011;6774;48.208;10.766;2024-01-15T09:50:46;3.20;;;3.00;;
13406;SDS011;6774;48.208;10.766;2024-01-15T09:53:16;3.43;;;3.10;;
13406;SDS011;6774;48.208;10.766;2024-01-15T09:55:45;3.43;;;3.17;;
13406;SDS011;6774;48.208;10.766;2024-01-15T09:58:12;3.93;;;2.87;;
13406;SDS011;6774;48.208;10.766;2024-01-15T10:00:40;3.60;;;2.60;;
13406;SDS011;6774;48.208;10.766;2024-01-15T10:03:10;2.67;;;2.47;;
13406;SDS011;6774;48.208;10.766;2024-01-15T10:05:38;6.40;;;3.53;;
13406;SDS011;6774;48.208;10.766;2024-01-15T10:08:06;4.23;;;3.93;;
13406;SDS011;6774;48.208;10.766;2024-01-15T10:10:36;2.17;;;2.03;;
13406;SDS011;6774;48.208;10.766;2024-01-15T10:13:04;2.27;;;2.07;;
13406;SDS011;6774;48.208;10.766;2024-01-15T10:15:33;1.90;;;1.60;;
13406;SDS011;6774;48.208;10.766;2024-01-15T10:18:03;2.30;;;1.67;;
13406;SDS011;6774;48.208;10.766;2024-01-15T10:20:32;2.13;;;2.03;;
13406;SDS011;6774;48.208;10.766;2024-01-15T10:23:00;3.83;;;2.50;;
13406;SDS011;6774;48.208;10.766;2024-01-15T10:25:28;2.80;;;2.50;;
13406;SDS011;6774;48.208;10.766;2024-01-15T10:28:02;2.10;;;2.00;;
13406;SDS011;6774;48.208;10.766;2024-01-15T10:30:31;2.93;;;2.70;;
13406;SDS011;6774;48.208;10.766;2024-01-15T10:33:00;2.73;;;2.53;;
13406;SDS011;6774;48.208;10.766;2024-01-15T10:35:29;3.23;;;2.97;;
13406;SDS011;6774;48.208;10.766;2024-01-15T10:37:58;2.97;;;2.67;;
13406;SDS011;6774;48.208;10.766;2024-01-15T10:40:26;2.13;;;1.80;;
13406;SDS011;6774;48.208;10.766;2024-01-15T10:42:54;4.37;;;3.70;;
13406;SDS011;6774;48.208;10.766;2024-01-15T10:45:24;3.63;;;2.10;;
13406;SDS011;6774;48.208;10.766;2024-01-15T10:47:52;2.73;;;2.13;;
13406;SDS011;6774;48.208;10.766;2024-01-15T10:50:26;3.27;;;2.73;;
13406;SDS011;6774;48.208;10.766;2024-01-15T10:52:54;3.30;;;3.00;;
13406;SDS011;6774;48.208;10.766;2024-01-15T10:55:23;3.20;;;2.37;;
13406;SDS011;6774;48.208;10.766;2024-01-15T10:57:51;1.93;;;1.73;;
13406;SDS011;6774;48.208;10.766;2024-01-15T11:00:23;4.10;;;2.23;;
13406;SDS011;6774;48.208;10.766;2024-01-15T11:02:52;6.57;;;2.93;;
13406;SDS011;6774;48.208;10.766;2024-01-15T11:05:22;1.77;;;1.67;;
13406;SDS011;6774;48.208;10.766;2024-01-15T11:07:50;1.80;;;1.67;;
13406;SDS011;6774;48.208;10.766;2024-01-15T11:13:13;2.37;;;2.17;;
13406;SDS011;6774;48.208;10.766;2024-01-15T11:15:56;2.07;;;1.97;;
13406;SDS011;6774;48.208;10.766;2024-01-15T11:18:27;4.97;;;2.37;;
13406;SDS011;6774;48.208;10.766;2024-01-15T11:23:50;2.83;;;2.23;;
13406;SDS011;6774;48.208;10.766;2024-01-15T11:26:29;2.13;;;2.03;;
13406;SDS011;6774;48.208;10.766;2024-01-15T11:29:00;4.00;;;3.70;;
13406;SDS011;6774;48.208;10.766;2024-01-15T11:37:18;2.13;;;1.83;;
13406;SDS011;6774;48.208;10.766;2024-01-15T11:39:46;3.83;;;3.63;;
13406;SDS011;6774;48.208;10.766;2024-01-15T11:42:14;2.67;;;1.80;;
13406;SDS011;6774;48.208;10.766;2024-01-15T11:44:43;2.30;;;2.10;;
13406;SDS011;6774;48.208;10.766;2024-01-15T11:47:12;2.37;;;2.17;;
13406;SDS011;6774;48.208;10.766;2024-01-15T11:49:50;2.37;;;2.17;;
13406;SDS011;6774;48.208;10.766;2024-01-15T11:52:31;4.70;;;2.63;;
13406;SDS011;6774;48.208;10.766;2024-01-15T11:55:10;2.60;;;2.40;;
13406;SDS011;6774;48.208;10.766;2024-01-15T11:57:41;2.90;;;2.70;;
13406;SDS011;6774;48.208;10.766;2024-01-15T12:00:10;2.30;;;2.17;;
13406;SDS011;6774;48.208;10.766;2024-01-15T12:02:41;1.60;;;1.47;;
13406;SDS011;6774;48.208;10.766;2024-01-15T12:05:09;3.43;;;2.33;;
13406;SDS011;6774;48.208;10.766;2024-01-15T12:07:39;2.40;;;1.73;;
13406;SDS011;6774;48.208;10.766;2024-01-15T12:10:10;3.03;;;2.33;;
13406;SDS011;6774;48.208;10.766;2024-01-15T12:12:57;2.50;;;2.30;;
13406;SDS011;6774;48.208;10.766;2024-01-15T12:15:26;8.47;;;3.23;;
13406;SDS011;6774;48.208;10.766;2024-01-15T12:17:57;3.13;;;2.43;;
13406;SDS011;6774;48.208;10.766;2024-01-15T12:20:26;2.47;;;2.20;;
13406;SDS011;6774;48.208;10.766;2024-01-15T12:22:54;1.80;;;1.70;;
13406;SDS011;6774;48.208;10.766;2024-01-15T12:25:28;2.60;;;2.40;;
13406;SDS011;6774;48.208;10.766;2024-01-15T12:27:57;3.10;;;2.20;;
13406;SDS011;6774;48.208;10.766;2024-01-15T12:30:26;3.03;;;2.77;;
13406;SDS011;6774;48.208;10.766;2024-01-15T12:32:56;3.60;;;2.97;;
13406;SDS011;6774;48.208;10.766;2024-01-15T12:35:24;3.50;;;2.70;;
13406;SDS011;6774;48.208;10.766;2024-01-15T12:37:54;3.47;;;2.23;;
13406;SDS011;6774;48.208;10.766;2024-01-15T12:40:22;3.73;;;3.40;;
13406;SDS011;6774;48.208;10.766;2024-01-15T12:42:51;3.97;;;3.03;;
13406;SDS011;6774;48.208;10.766;2024-01-15T12:45:19;4.37;;;2.80;;
13406;SDS011;6774;48.208;10.766;2024-01-15T12:47:47;3.07;;;2.80;;
13406;SDS011;6774;48.208;10.766;2024-01-15T12:50:18;4.00;;;2.97;;
13406;SDS011;6774;48.208;10.766;2024-01-15T12:52:47;7.43;;;3.77;;
13406;SDS011;6774;48.208;10.766;2024-01-15T12:55:14;4.33;;;3.60;;
13406;SDS011;6774;48.208;10.766;2024-01-15T12:57:43;5.20;;;4.73;;
13406;SDS011;6774;48.208;10.766;2024-01-15T13:00:12;6.40;;;5.53;;
13406;SDS011;6774;48.208;10.766;2024-01-15T13:02:41;3.57;;;3.27;;
13406;SDS011;6774;48.208;10.766;2024-01-15T13:05:10;4.77;;;3.77;;
13406;SDS011;6774;48.208;10.766;2024-01-15T13:07:42;5.40;;;4.30;;
13406;SDS011;6774;48.208;10.766;2024-01-15T13:10:10;5.57;;;5.07;;
13406;SDS011;6774;48.208;10.766;2024-01-15T13:12:39;6.30;;;5.70;;
13406;SDS011;6774;48.208;10.766;2024-01-15T13:15:08;4.80;;;4.40;;
13406;SDS011;6774;48.208;10.766;2024-01-15T13:17:40;5.43;;;4.87;;
13406;SDS011;6774;48.208;10.766;2024-01-15T13:20:09;6.20;;;4.50;;
13406;SDS011;6774;48.208;10.766;2024-01-15T13:22:38;7.40;;;6.63;;
13406;SDS011;6774;48.208;10.766;2024-01-15T13:25:08;4.43;;;3.70;;
13406;SDS011;6774;48.208;10.766;2024-01-15T13:27:38;6.23;;;5.60;;
13406;SDS011;6774;48.208;10.766;2024-01-15T13:30:08;5.40;;;4.87;;
13406;SDS011;6774;48.208;10.766;2024-01-15T13:32:38;5.23;;;3.50;;
13406;SDS011;6774;48.208;10.766;2024-01-15T13:35:06;5.47;;;4.97;;
13406;SDS011;6774;48.208;10.766;2024-01-15T13:37:36;8.13;;;5.73;;
13406;SDS011;6774;48.208;10.766;2024-01-15T13:40:05;6.83;;;6.10;;
13406;SDS011;6774;48.208;10.766;2024-01-15T13:42:35;5.93;;;5.43;;
13406;SDS011;6774;48.208;10.766;2024-01-15T13:45:05;5.83;;;5.37;;
13406;SDS011;6774;48.208;10.766;2024-01-15T13:47:34;5.77;;;4.23;;
13406;SDS011;6774;48.208;10.766;2024-01-15T13:50:02;6.97;;;4.93;;
13406;SDS011;6774;48.208;10.766;2024-01-15T13:52:30;6.87;;;5.83;;
13406;SDS011;6774;48.208;10.766;2024-01-15T13:54:58;4.27;;;3.90;;
13406;SDS011;6774;48.208;10.766;2024-01-15T13:57:26;5.80;;;4.17;;
13406;SDS011;6774;48.208;10.766;2024-01-15T13:59:55;4.10;;;3.47;;
13406;SDS011;6774;48.208;10.766;2024-01-15T14:02:23;3.57;;;3.27;;
13406;SDS011;6774;48.208;10.766;2024-01-15T14:04:52;6.73;;;6.23;;
13406;SDS011;6774;48.208;10.766;2024-01-15T14:07:20;5.13;;;4.70;;
13406;SDS011;6774;48.208;10.766;2024-01-15T14:09:48;4.67;;;4.27;;
13406;SDS011;6774;48.208;10.766;2024-01-15T14:12:16;3.57;;;3.27;;
13406;SDS011;6774;48.208;10.766;2024-01-15T14:14:44;4.67;;;4.20;;
13406;SDS011;6774;48.208;10.766;2024-01-15T14:17:13;4.57;;;4.17;;
13406;SDS011;6774;48.208;10.766;2024-01-15T14:19:41;3.20;;;2.97;;
13406;SDS011;6774;48.208;10.766;2024-01-15T14:22:09;3.37;;;2.63;;
13406;SDS011;6774;48.208;10.766;2024-01-15T14:24:37;4.23;;;3.23;;
13406;SDS011;6774;48.208;10.766;2024-01-15T14:27:05;5.23;;;3.30;;
13406;SDS011;6774;48.208;10.766;2024-01-15T14:29:33;6.77;;;4.97;;
13406;SDS011;6774;48.208;10.766;2024-01-15T14:32:02;5.57;;;4.77;;
13406;SDS011;6774;48.208;10.766;2024-01-15T14:34:31;3.63;;;3.10;;
13406;SDS011;6774;48.208;10.766;2024-01-15T14:36:59;3.47;;;3.13;;
13406;SDS011;6774;48.208;10.766;2024-01-15T14:39:27;4.63;;;4.23;;
13406;SDS011;6774;48.208;10.766;2024-01-15T14:41:55;4.27;;;3.87;;
13406;SDS011;6774;48.208;10.766;2024-01-15T14:44:23;6.73;;;3.43;;
13406;SDS011;6774;48.208;10.766;2024-01-15T14:46:51;4.83;;;4.17;;
13406;SDS011;6774;48.208;10.766;2024-01-15T14:49:19;3.37;;;2.90;;
13406;SDS011;6774;48.208;10.766;2024-01-15T14:51:48;6.27;;;4.33;;
13406;SDS011;6774;48.208;10.766;2024-01-15T14:54:16;4.33;;;3.93;;
13406;SDS011;6774;48.208;10.766;2024-01-15T14:56:45;6.87;;;3.67;;
13406;SDS011;6774;48.208;10.766;2024-01-15T14:59:13;2.80;;;2.50;;
13406;SDS011;6774;48.208;10.766;2024-01-15T15:01:41;3.03;;;2.73;;
13406;SDS011;6774;48.208;10.766;2024-01-15T15:04:09;2.77;;;2.57;;
13406;SDS011;6774;48.208;10.766;2024-01-15T15:06:37;4.10;;;3.20;;